sensor_id;sensor_type;location;lat;lon;timestamp;temperature;humidity
69281;SHT31;56392;51.082;17.080;2023-04-03T00:05:08;3.85;66.45
69281;SHT31;56392;51.082;17.080;2023-04-03T00:10:31;3.70;66.99
69281;SHT31;56392;51.082;17.080;2023-04-03T00:15:54;3.60;67.39
69281;SHT31;56392;51.082;17.080;2023-04-03T00:21:18;3.51;67.87
69281;SHT31;56392;51.082;17.080;2023-04-03T00:26:42;3.55;68.02
69281;SHT31;56392;51.082;17.080;2023-04-03T00:32:05;3.52;67.43
69281;SHT31;56392;51.082;17.080;2023-04-03T00:37:29;3.40;68.31
69281;SHT31;56392;51.082;17.080;2023-04-03T00:42:56;3.36;67.60
69281;SHT31;56392;51.082;17.080;2023-04-03T00:48:22;3.36;68.33
69281;SHT31;56392;51.082;17.080;2023-04-03T00:53:51;3.19;68.77
69281;SHT31;56392;51.082;17.080;2023-04-03T00:59:19;3.24;68.25
69281;SHT31;56392;51.082;17.080;2023-04-03T01:04:46;3.16;68.56
69281;SHT31;56392;51.082;17.080;2023-04-03T01:10:13;3.12;68.96
69281;SHT31;56392;51.082;17.080;2023-04-03T01:15:37;3.14;68.51
69281;SHT31;56392;51.082;17.080;2023-04-03T01:21:27;3.09;68.85
69281;SHT31;56392;51.082;17.080;2023-04-03T01:27:03;3.05;69.04
69281;SHT31;56392;51.082;17.080;2023-04-03T01:32:28;3.03;69.23
69281;SHT31;56392;51.082;17.080;2023-04-03T01:37:51;3.04;69.15
69281;SHT31;56392;51.082;17.080;2023-04-03T01:43:14;3.03;69.49
69281;SHT31;56392;51.082;17.080;2023-04-03T01:48:38;3.04;69.29
69281;SHT31;56392;51.082;17.080;2023-04-03T01:54:02;3.01;69.54
69281;SHT31;56392;51.082;17.080;2023-04-03T01:59:25;3.01;69.87
69281;SHT31;56392;51.082;17.080;2023-04-03T02:04:51;2.91;70.29
69281;SHT31;56392;51.082;17.080;2023-04-03T02:10:14;2.81;70.30
69281;SHT31;56392;51.082;17.080;2023-04-03T02:15:38;2.76;70.72
69281;SHT31;56392;51.082;17.080;2023-04-03T02:21:03;2.79;70.56
69281;SHT31;56392;51.082;17.080;2023-04-03T02:26:26;2.73;70.71
69281;SHT31;56392;51.082;17.080;2023-04-03T02:31:49;2.67;71.24
69281;SHT31;56392;51.082;17.080;2023-04-03T02:37:14;2.67;70.99
69281;SHT31;56392;51.082;17.080;2023-04-03T02:42:37;2.57;71.21
69281;SHT31;56392;51.082;17.080;2023-04-03T02:48:00;2.56;71.28
69281;SHT31;56392;51.082;17.080;2023-04-03T02:53:24;2.43;71.80
69281;SHT31;56392;51.082;17.080;2023-04-03T02:58:48;2.36;72.28
69281;SHT31;56392;51.082;17.080;2023-04-03T03:04:12;2.36;72.27
69281;SHT31;56392;51.082;17.080;2023-04-03T03:09:36;2.32;72.55
69281;SHT31;56392;51.082;17.080;2023-04-03T03:15:00;2.32;72.23
69281;SHT31;56392;51.082;17.080;2023-04-03T03:20:23;2.37;72.55
69281;SHT31;56392;51.082;17.080;2023-04-03T03:25:48;2.33;72.61
69281;SHT31;56392;51.082;17.080;2023-04-03T03:31:12;2.29;72.72
69281;SHT31;56392;51.082;17.080;2023-04-03T03:36:37;2.19;72.95
69281;SHT31;56392;51.082;17.080;2023-04-03T03:42:01;2.21;72.67
69281;SHT31;56392;51.082;17.080;2023-04-03T03:47:25;2.11;73.09
69281;SHT31;56392;51.082;17.080;2023-04-03T03:52:48;2.02;73.68
69281;SHT31;56392;51.082;17.080;2023-04-03T03:58:12;1.98;73.76
69281;SHT31;56392;51.082;17.080;2023-04-03T04:03:35;1.89;73.89
69281;SHT31;56392;51.082;17.080;2023-04-03T04:08:58;1.88;73.95
69281;SHT31;56392;51.082;17.080;2023-04-03T04:14:23;1.84;74.22
69281;SHT31;56392;51.082;17.080;2023-04-03T04:19:46;1.86;74.20
69281;SHT31;56392;51.082;17.080;2023-04-03T04:25:09;1.78;74.47
69281;SHT31;56392;51.082;17.080;2023-04-03T04:30:34;1.82;74.42
69281;SHT31;56392;51.082;17.080;2023-04-03T04:35:57;1.79;74.58
69281;SHT31;56392;51.082;17.080;2023-04-03T04:41:20;1.74;74.79
69281;SHT31;56392;51.082;17.080;2023-04-03T04:46:46;1.74;74.92
69281;SHT31;56392;51.082;17.080;2023-04-03T04:52:09;1.68;75.31
69281;SHT31;56392;51.082;17.080;2023-04-03T04:57:32;1.68;75.07
69281;SHT31;56392;51.082;17.080;2023-04-03T05:02:58;1.70;75.16
69281;SHT31;56392;51.082;17.080;2023-04-03T05:08:21;1.70;75.18
69281;SHT31;56392;51.082;17.080;2023-04-03T05:13:45;1.72;74.74
69281;SHT31;56392;51.082;17.080;2023-04-03T05:19:09;1.67;75.40
69281;SHT31;56392;51.082;17.080;2023-04-03T05:24:32;1.74;75.36
69281;SHT31;56392;51.082;17.080;2023-04-03T05:29:55;1.75;75.46
69281;SHT31;56392;51.082;17.080;2023-04-03T05:35:21;1.82;75.41
69281;SHT31;56392;51.082;17.080;2023-04-03T05:40:44;1.86;74.76
69281;SHT31;56392;51.082;17.080;2023-04-03T05:46:10;1.95;75.00
69281;SHT31;56392;51.082;17.080;2023-04-03T05:51:36;2.08;74.96
69281;SHT31;56392;51.082;17.080;2023-04-03T05:56:59;2.19;74.42
69281;SHT31;56392;51.082;17.080;2023-04-03T06:02:24;2.26;74.58
69281;SHT31;56392;51.082;17.080;2023-04-03T06:07:49;2.35;74.04
69281;SHT31;56392;51.082;17.080;2023-04-03T06:13:12;2.57;73.46
69281;SHT31;56392;51.082;17.080;2023-04-03T06:18:35;2.84;73.04
69281;SHT31;56392;51.082;17.080;2023-04-03T06:24:00;2.98;71.70
69281;SHT31;56392;51.082;17.080;2023-04-03T06:29:23;3.15;71.31
69281;SHT31;56392;51.082;17.080;2023-04-03T06:34:47;3.39;70.86
69281;SHT31;56392;51.082;17.080;2023-04-03T06:40:18;3.69;71.13
69281;SHT31;56392;51.082;17.080;2023-04-03T06:45:42;3.83;70.41
69281;SHT31;56392;51.082;17.080;2023-04-03T06:51:05;3.90;70.20
69281;SHT31;56392;51.082;17.080;2023-04-03T06:56:30;4.13;69.37
69281;SHT31;56392;51.082;17.080;2023-04-03T07:01:53;4.38;69.52
69281;SHT31;56392;51.082;17.080;2023-04-03T07:07:16;4.61;69.78
69281;SHT31;56392;51.082;17.080;2023-04-03T07:12:41;4.61;67.39
69281;SHT31;56392;51.082;17.080;2023-04-03T07:18:04;4.54;67.25
69281;SHT31;56392;51.082;17.080;2023-04-03T07:23:28;4.68;66.42
69281;SHT31;56392;51.082;17.080;2023-04-03T07:28:52;4.90;66.70
69281;SHT31;56392;51.082;17.080;2023-04-03T07:34:15;5.15;65.89
69281;SHT31;56392;51.082;17.080;2023-04-03T07:39:39;5.38;65.95
69281;SHT31;56392;51.082;17.080;2023-04-03T07:45:05;5.41;64.37
69281;SHT31;56392;51.082;17.080;2023-04-03T07:50:29;5.58;64.25
69281;SHT31;56392;51.082;17.080;2023-04-03T07:55:53;5.85;63.37
69281;SHT31;56392;51.082;17.080;2023-04-03T08:01:20;6.02;63.00
69281;SHT31;56392;51.082;17.080;2023-04-03T08:06:43;6.16;60.78
69281;SHT31;56392;51.082;17.080;2023-04-03T08:12:06;6.39;61.12
69281;SHT31;56392;51.082;17.080;2023-04-03T08:17:31;6.50;60.17
69281;SHT31;56392;51.082;17.080;2023-04-03T08:22:55;6.64;60.89
69281;SHT31;56392;51.082;17.080;2023-04-03T08:28:20;6.83;60.53
69281;SHT31;56392;51.082;17.080;2023-04-03T08:33:44;7.00;58.01
69281;SHT31;56392;51.082;17.080;2023-04-03T08:39:08;6.92;57.93
69281;SHT31;56392;51.082;17.080;2023-04-03T08:44:39;6.76;55.42
69281;SHT31;56392;51.082;17.080;2023-04-03T08:50:07;6.95;54.16
69281;SHT31;56392;51.082;17.080;2023-04-03T08:55:33;7.05;54.53
69281;SHT31;56392;51.082;17.080;2023-04-03T09:01:00;6.92;53.73
69281;SHT31;56392;51.082;17.080;2023-04-03T09:06:29;6.70;53.96
69281;SHT31;56392;51.082;17.080;2023-04-03T09:12:00;6.69;56.57
69281;SHT31;56392;51.082;17.080;2023-04-03T09:17:38;6.76;51.97
69281;SHT31;56392;51.082;17.080;2023-04-03T09:23:13;6.53;51.66
69281;SHT31;56392;51.082;17.080;2023-04-03T09:28:41;6.69;48.05
69281;SHT31;56392;51.082;17.080;2023-04-03T09:34:06;6.77;47.84
69281;SHT31;56392;51.082;17.080;2023-04-03T09:39:46;6.58;48.92
69281;SHT31;56392;51.082;17.080;2023-04-03T09:45:23;6.91;50.67
69281;SHT31;56392;51.082;17.080;2023-04-03T09:50:57;6.90;48.08
69281;SHT31;56392;51.082;17.080;2023-04-03T09:56:25;6.74;51.27
69281;SHT31;56392;51.082;17.080;2023-04-03T10:01:58;6.37;50.80
69281;SHT31;56392;51.082;17.080;2023-04-03T10:07:33;6.43;51.85
69281;SHT31;56392;51.082;17.080;2023-04-03T10:13:06;6.28;51.21
69281;SHT31;56392;51.082;17.080;2023-04-03T10:18:39;6.26;51.19
69281;SHT31;56392;51.082;17.080;2023-04-03T10:24:09;6.08;49.76
69281;SHT31;56392;51.082;17.080;2023-04-03T10:29:40;6.10;50.52
69281;SHT31;56392;51.082;17.080;2023-04-03T10:35:12;6.06;50.57
69281;SHT31;56392;51.082;17.080;2023-04-03T10:40:43;5.98;48.74
69281;SHT31;56392;51.082;17.080;2023-04-03T10:46:13;5.89;49.41
69281;SHT31;56392;51.082;17.080;2023-04-03T10:51:42;6.06;50.68
69281;SHT31;56392;51.082;17.080;2023-04-03T10:57:08;6.20;49.87
69281;SHT31;56392;51.082;17.080;2023-04-03T11:02:48;6.18;51.50
69281;SHT31;56392;51.082;17.080;2023-04-03T11:08:17;6.06;50.78
69281;SHT31;56392;51.082;17.080;2023-04-03T11:13:50;6.20;49.78
69281;SHT31;56392;51.082;17.080;2023-04-03T11:19:20;6.20;48.74
69281;SHT31;56392;51.082;17.080;2023-04-03T11:24:52;6.40;49.40
69281;SHT31;56392;51.082;17.080;2023-04-03T11:30:19;6.46;48.68
69281;SHT31;56392;51.082;17.080;2023-04-03T11:35:48;6.50;48.63
69281;SHT31;56392;51.082;17.080;2023-04-03T11:41:13;6.40;48.79
69281;SHT31;56392;51.082;17.080;2023-04-03T11:46:50;6.29;48.07
69281;SHT31;56392;51.082;17.080;2023-04-03T11:58:18;6.39;50.84
69281;SHT31;56392;51.082;17.080;2023-04-03T12:03:57;6.44;49.54
69281;SHT31;56392;51.082;17.080;2023-04-03T12:09:27;6.47;44.87
69281;SHT31;56392;51.082;17.080;2023-04-03T12:14:52;6.53;44.23
69281;SHT31;56392;51.082;17.080;2023-04-03T12:20:55;6.60;46.67
69281;SHT31;56392;51.082;17.080;2023-04-03T12:26:22;6.58;45.80
69281;SHT31;56392;51.082;17.080;2023-04-03T12:31:58;6.57;46.65
69281;SHT31;56392;51.082;17.080;2023-04-03T12:37:51;6.51;44.27
69281;SHT31;56392;51.082;17.080;2023-04-03T12:43:28;6.66;45.77
69281;SHT31;56392;51.082;17.080;2023-04-03T12:48:56;6.73;46.47
69281;SHT31;56392;51.082;17.080;2023-04-03T12:54:23;6.58;45.37
69281;SHT31;56392;51.082;17.080;2023-04-03T12:59:50;6.46;44.60
69281;SHT31;56392;51.082;17.080;2023-04-03T13:05:16;6.61;45.57
69281;SHT31;56392;51.082;17.080;2023-04-03T13:10:58;6.64;46.14
69281;SHT31;56392;51.082;17.080;2023-04-03T13:16:26;6.43;46.59
69281;SHT31;56392;51.082;17.080;2023-04-03T13:21:50;6.40;46.33
69281;SHT31;56392;51.082;17.080;2023-04-03T13:27:17;6.30;45.13
69281;SHT31;56392;51.082;17.080;2023-04-03T13:32:43;6.40;47.36
69281;SHT31;56392;51.082;17.080;2023-04-03T13:38:23;6.40;46.07
69281;SHT31;56392;51.082;17.080;2023-04-03T13:43:46;6.50;45.30
69281;SHT31;56392;51.082;17.080;2023-04-03T13:49:20;6.37;43.96
69281;SHT31;56392;51.082;17.080;2023-04-03T13:54:46;6.34;45.11
69281;SHT31;56392;51.082;17.080;2023-04-03T14:00:30;6.32;46.04
69281;SHT31;56392;51.082;17.080;2023-04-03T14:05:55;6.28;45.39
69281;SHT31;56392;51.082;17.080;2023-04-03T14:11:21;6.34;45.70
69281;SHT31;56392;51.082;17.080;2023-04-03T14:16:51;6.30;44.14
69281;SHT31;56392;51.082;17.080;2023-04-03T14:22:18;6.30;45.42
69281;SHT31;56392;51.082;17.080;2023-04-03T14:27:44;6.25;44.08
69281;SHT31;56392;51.082;17.080;2023-04-03T14:33:11;6.23;44.19
69281;SHT31;56392;51.082;17.080;2023-04-03T14:38:37;6.29;43.65
69281;SHT31;56392;51.082;17.080;2023-04-03T14:44:01;6.36;44.16
69281;SHT31;56392;51.082;17.080;2023-04-03T14:49:26;6.40;43.07
69281;SHT31;56392;51.082;17.080;2023-04-03T14:54:54;6.30;43.85
69281;SHT31;56392;51.082;17.080;2023-04-03T15:00:19;6.28;43.75
69281;SHT31;56392;51.082;17.080;2023-04-03T15:05:44;6.22;42.76
69281;SHT31;56392;51.082;17.080;2023-04-03T15:11:11;6.18;43.20
69281;SHT31;56392;51.082;17.080;2023-04-03T15:16:36;6.19;44.51
69281;SHT31;56392;51.082;17.080;2023-04-03T15:21:59;6.22;44.97
69281;SHT31;56392;51.082;17.080;2023-04-03T15:27:24;6.13;44.64
69281;SHT31;56392;51.082;17.080;2023-04-03T15:32:47;5.95;43.05
69281;SHT31;56392;51.082;17.080;2023-04-03T15:38:11;5.92;44.02
69281;SHT31;56392;51.082;17.080;2023-04-03T15:43:35;5.94;44.52
69281;SHT31;56392;51.082;17.080;2023-04-03T15:48:59;5.87;43.47
69281;SHT31;56392;51.082;17.080;2023-04-03T15:54:22;5.92;45.62
69281;SHT31;56392;51.082;17.080;2023-04-03T15:59:48;5.95;46.56
69281;SHT31;56392;51.082;17.080;2023-04-03T16:05:14;5.87;46.89
69281;SHT31;56392;51.082;17.080;2023-04-03T16:10:39;5.92;48.30
69281;SHT31;56392;51.082;17.080;2023-04-03T16:16:04;5.79;47.01
69281;SHT31;56392;51.082;17.080;2023-04-03T16:21:27;5.79;46.90
69281;SHT31;56392;51.082;17.080;2023-04-03T16:26:51;5.78;47.36
69281;SHT31;56392;51.082;17.080;2023-04-03T16:32:16;5.74;47.69
69281;SHT31;56392;51.082;17.080;2023-04-03T16:37:39;5.62;47.89
69281;SHT31;56392;51.082;17.080;2023-04-03T16:43:02;5.58;46.97
69281;SHT31;56392;51.082;17.080;2023-04-03T16:48:27;5.64;48.23
69281;SHT31;56392;51.082;17.080;2023-04-03T16:53:51;5.57;48.58
69281;SHT31;56392;51.082;17.080;2023-04-03T16:59:14;5.51;47.89
69281;SHT31;56392;51.082;17.080;2023-04-03T17:04:39;5.48;48.69
69281;SHT31;56392;51.082;17.080;2023-04-03T17:10:02;5.47;48.13
69281;SHT31;56392;51.082;17.080;2023-04-03T17:15:25;5.47;50.20
69281;SHT31;56392;51.082;17.080;2023-04-03T17:20:49;5.48;49.21
69281;SHT31;56392;51.082;17.080;2023-04-03T17:26:12;5.44;49.26
69281;SHT31;56392;51.082;17.080;2023-04-03T17:31:36;5.40;49.67
69281;SHT31;56392;51.082;17.080;2023-04-03T17:37:00;5.37;50.05
69281;SHT31;56392;51.082;17.080;2023-04-03T17:42:23;5.36;48.86
69281;SHT31;56392;51.082;17.080;2023-04-03T17:47:46;5.34;49.44
69281;SHT31;56392;51.082;17.080;2023-04-03T17:53:12;5.23;49.11
69281;SHT31;56392;51.082;17.080;2023-04-03T17:58:36;5.22;49.28
69281;SHT31;56392;51.082;17.080;2023-04-03T18:04:02;5.26;50.14
69281;SHT31;56392;51.082;17.080;2023-04-03T18:09:29;5.24;50.13
69281;SHT31;56392;51.082;17.080;2023-04-03T18:14:53;5.26;50.53
69281;SHT31;56392;51.082;17.080;2023-04-03T18:20:16;5.31;51.64
69281;SHT31;56392;51.082;17.080;2023-04-03T18:25:41;5.26;51.57
69281;SHT31;56392;51.082;17.080;2023-04-03T18:31:04;5.24;51.33
69281;SHT31;56392;51.082;17.080;2023-04-03T18:36:31;5.17;51.28
69281;SHT31;56392;51.082;17.080;2023-04-03T18:41:58;5.19;52.01
69281;SHT31;56392;51.082;17.080;2023-04-03T18:47:26;5.15;51.65
69281;SHT31;56392;51.082;17.080;2023-04-03T18:52:50;5.20;52.04
69281;SHT31;56392;51.082;17.080;2023-04-03T18:58:16;5.19;52.62
69281;SHT31;56392;51.082;17.080;2023-04-03T19:03:39;5.15;52.58
69281;SHT31;56392;51.082;17.080;2023-04-03T19:09:04;5.12;52.28
69281;SHT31;56392;51.082;17.080;2023-04-03T19:14:29;5.12;52.81
69281;SHT31;56392;51.082;17.080;2023-04-03T19:19:52;5.12;52.79
69281;SHT31;56392;51.082;17.080;2023-04-03T19:25:15;5.13;53.07
69281;SHT31;56392;51.082;17.080;2023-04-03T19:30:39;5.15;53.74
69281;SHT31;56392;51.082;17.080;2023-04-03T19:36:03;5.16;53.82
69281;SHT31;56392;51.082;17.080;2023-04-03T19:41:29;5.15;53.80
69281;SHT31;56392;51.082;17.080;2023-04-03T19:46:54;5.13;53.09
69281;SHT31;56392;51.082;17.080;2023-04-03T19:52:17;5.03;53.67
69281;SHT31;56392;51.082;17.080;2023-04-03T19:57:41;4.96;53.46
69281;SHT31;56392;51.082;17.080;2023-04-03T20:03:05;4.92;54.10
69281;SHT31;56392;51.082;17.080;2023-04-03T20:08:28;4.93;54.19
69281;SHT31;56392;51.082;17.080;2023-04-03T20:13:53;4.93;54.58
69281;SHT31;56392;51.082;17.080;2023-04-03T20:19:18;4.88;53.29
69281;SHT31;56392;51.082;17.080;2023-04-03T20:24:42;4.83;53.83
69281;SHT31;56392;51.082;17.080;2023-04-03T20:30:06;4.86;54.28
69281;SHT31;56392;51.082;17.080;2023-04-03T20:35:35;4.79;53.60
69281;SHT31;56392;51.082;17.080;2023-04-03T20:40:58;4.75;54.03
69281;SHT31;56392;51.082;17.080;2023-04-03T20:46:21;4.72;53.98
69281;SHT31;56392;51.082;17.080;2023-04-03T20:51:50;4.62;54.03
69281;SHT31;56392;51.082;17.080;2023-04-03T20:57:13;4.61;54.56
69281;SHT31;56392;51.082;17.080;2023-04-03T21:02:36;4.49;53.65
69281;SHT31;56392;51.082;17.080;2023-04-03T21:20:06;4.08;52.30
69281;SHT31;56392;51.082;17.080;2023-04-03T21:25:30;4.08;52.78
69281;SHT31;56392;51.082;17.080;2023-04-03T21:30:53;3.96;52.78
69281;SHT31;56392;51.082;17.080;2023-04-03T21:36:17;3.94;53.15
69281;SHT31;56392;51.082;17.080;2023-04-03T21:41:41;3.90;52.64
69281;SHT31;56392;51.082;17.080;2023-04-03T21:47:04;3.82;53.62
69281;SHT31;56392;51.082;17.080;2023-04-03T21:52:29;3.65;55.62
69281;SHT31;56392;51.082;17.080;2023-04-03T21:57:52;3.60;55.26
69281;SHT31;56392;51.082;17.080;2023-04-03T22:03:18;3.49;56.05
69281;SHT31;56392;51.082;17.080;2023-04-03T22:08:44;3.36;57.07
69281;SHT31;56392;51.082;17.080;2023-04-03T22:14:07;3.26;57.44
69281;SHT31;56392;51.082;17.080;2023-04-03T22:19:30;3.24;57.42
69281;SHT31;56392;51.082;17.080;2023-04-03T22:24:55;3.21;57.54
69281;SHT31;56392;51.082;17.080;2023-04-03T22:30:19;3.07;58.51
69281;SHT31;56392;51.082;17.080;2023-04-03T22:35:44;2.95;58.70
69281;SHT31;56392;51.082;17.080;2023-04-03T22:41:10;2.94;58.66
69281;SHT31;56392;51.082;17.080;2023-04-03T22:46:33;2.83;59.25
69281;SHT31;56392;51.082;17.080;2023-04-03T22:51:56;2.79;59.14
69281;SHT31;56392;51.082;17.080;2023-04-03T22:57:21;2.68;59.48
69281;SHT31;56392;51.082;17.080;2023-04-03T23:02:44;2.57;59.42
69281;SHT31;56392;51.082;17.080;2023-04-03T23:08:08;2.56;59.51
69281;SHT31;56392;51.082;17.080;2023-04-03T23:13:33;2.49;59.67
69281;SHT31;56392;51.082;17.080;2023-04-03T23:18:58;2.47;59.23
69281;SHT31;56392;51.082;17.080;2023-04-03T23:24:21;2.46;59.73
69281;SHT31;56392;51.082;17.080;2023-04-03T23:29:45;2.44;60.51
69281;SHT31;56392;51.082;17.080;2023-04-03T23:35:09;2.42;60.68
69281;SHT31;56392;51.082;17.080;2023-04-03T23:40:33;2.43;60.20
69281;SHT31;56392;51.082;17.080;2023-04-03T23:45:57;2.42;60.07
69281;SHT31;56392;51.082;17.080;2023-04-03T23:51:20;2.44;59.73
69281;SHT31;56392;51.082;17.080;2023-04-03T23:56:45;2.50;60.11
